Time;durP1;ratioP1;P1;durP2;ratioP2;P2;SDS_P1;SDS_P2;PMS_P1;PMS_P2;Temp;Humidity;BMP_temperature;BMP_pressure;BME280_temperature;BME280_humidity;BME280_pressure;Samples;Min_cycle;Max_cycle;Signal;HPM_P1;HPM_P2
2022/11/15 00:00:11;;;;;;;;;;;11.20;99.90;;;;;;5087307;28;19939;-80
2022/11/15 00:02:57;;;;;;;;;;;11.20;99.90;;;;;;5092551;28;20053;-80
2022/11/15 00:05:42;;;;;;;;;;;11.20;99.90;;;;;;5095454;28;20066;-79
2022/11/15 00:08:29;;;;;;;;;;;11.30;99.90;;;;;;5083164;28;19939;-80
2022/11/15 00:11:15;;;;;;;;;;;11.30;99.90;;;;;;5084544;28;20581;-79
2022/11/15 00:14:02;;;;;;;;;;;11.30;99.90;;;;;;5083703;28;19998;-80
2022/11/15 00:16:48;;;;;;;;;;;11.40;99.90;;;;;;5082957;28;19993;-79
2022/11/15 00:19:34;;;;;;;;;;;11.40;99.90;;;;;;5088436;28;19938;-79
2022/11/15 00:22:20;;;;;;;;;;;11.40;99.90;;;;;;5084859;28;19935;-80
2022/11/15 00:25:06;;;;;;;;;;;11.80;99.90;;;;;;5084213;28;20288;-80
2022/11/15 00:27:55;;;;;;;;;;;11.40;99.90;;;;;;5085325;28;19934;-80
2022/11/15 00:30:41;;;;;;;;;;;11.50;99.90;;;;;;5084827;28;19947;-80
2022/11/15 00:33:28;;;;;;;;;;;11.50;99.90;;;;;;5091995;28;19938;-79
2022/11/15 00:36:13;;;;;;;;;;;11.50;99.90;;;;;;5095671;28;19939;-79
2022/11/15 00:38:58;;;;;;;;;;;11.50;99.90;;;;;;5096522;28;19989;-80
2022/11/15 00:41:44;;;;;;;;;;;11.60;99.90;;;;;;5095468;28;19986;-80
2022/11/15 00:44:29;;;;;;;;;;;11.60;99.90;;;;;;5097616;28;19938;-80
2022/11/15 00:47:14;;;;;;;;;;;11.60;99.90;;;;;;5098339;28;19935;-80
2022/11/15 00:50:01;;;;;;;;;;;11.60;99.90;;;;;;5090363;28;19938;-78
2022/11/15 00:52:46;;;;;;;;;;;11.70;99.90;;;;;;5090555;28;19989;-78
2022/11/15 00:55:31;;;;;;;;;;;11.70;99.90;;;;;;5090806;28;19942;-79
2022/11/15 00:58:17;;;;;;;;;;;11.70;99.90;;;;;;5092996;28;20030;-80
2022/11/15 01:01:09;;;;;;;;;;;11.80;99.90;;;;;;5096978;28;19954;-80
2022/11/15 01:03:55;;;;;;;;;;;11.80;99.90;;;;;;5094590;28;19978;-80
2022/11/15 01:06:41;;;;;;;;;;;11.80;99.90;;;;;;5094528;28;19939;-80
2022/11/15 01:09:27;;;;;;;;;;;11.80;99.90;;;;;;5095204;28;19950;-80
2022/11/15 01:12:12;;;;;;;;;;;11.90;99.90;;;;;;5093787;28;19939;-80
2022/11/15 01:14:57;;;;;;;;;;;11.90;99.90;;;;;;5082461;28;19939;-80
2022/11/15 01:17:43;;;;;;;;;;;11.90;99.90;;;;;;5084586;28;20085;-80
2022/11/15 01:20:28;;;;;;;;;;;12.00;99.90;;;;;;5087538;28;19930;-80
2022/11/15 01:23:15;;;;;;;;;;;10.60;99.90;;;;;;5090145;28;19939;-80
2022/11/15 01:26:02;;;;;;;;;;;12.10;99.90;;;;;;5087806;28;19969;-84
2022/11/15 01:28:47;;;;;;;;;;;12.10;99.90;;;;;;5087562;28;19989;-80
2022/11/15 01:31:32;;;;;;;;;;;12.10;99.90;;;;;;5087694;28;19947;-81
2022/11/15 01:34:23;;;;;;;;;;;12.20;99.90;;;;;;5095762;28;19996;-79
2022/11/15 01:37:09;;;;;;;;;;;12.20;99.90;;;;;;5092012;28;19931;-80
2022/11/15 01:39:56;;;;;;;;;;;12.20;99.90;;;;;;5087431;28;19934;-81
2022/11/15 01:42:41;;;;;;;;;;;12.20;99.90;;;;;;5085070;28;20024;-79
2022/11/15 01:45:27;;;;;;;;;;;12.30;99.90;;;;;;5086636;28;19943;-83
2022/11/15 01:48:12;;;;;;;;;;;12.20;99.90;;;;;;5089589;28;19939;-79
2022/11/15 01:50:57;;;;;;;;;;;12.20;99.90;;;;;;5090417;28;19931;-79
2022/11/15 01:53:46;;;;;;;;;;;12.10;99.90;;;;;;5091247;28;20491;-81
2022/11/15 01:56:37;;;;;;;;;;;12.10;99.90;;;;;;5094192;22;19943;-84
2022/11/15 01:59:23;;;;;;;;;;;12.10;99.90;;;;;;5094311;28;19934;-83
2022/11/15 02:02:08;;;;;;;;;;;12.10;99.90;;;;;;5093769;28;19959;-83
2022/11/15 02:04:54;;;;;;;;;;;12.20;99.90;;;;;;5093980;28;19939;-82
2022/11/15 02:07:39;;;;;;;;;;;12.20;99.90;;;;;;5093830;28;19931;-82
2022/11/15 02:10:25;;;;;;;;;;;12.20;99.90;;;;;;5090379;28;19953;-83
2022/11/15 02:13:12;;;;;;;;;;;12.20;99.90;;;;;;5093306;28;19938;-83
2022/11/15 02:16:02;;;;;;;;;;;12.20;99.90;;;;;;5091750;28;21062;-82
2022/11/15 02:18:50;;;;;;;;;;;12.30;99.90;;;;;;5090522;28;20029;-82
2022/11/15 02:21:38;;;;;;;;;;;12.30;99.90;;;;;;5093221;28;20159;-82
2022/11/15 02:24:44;;;;;;;;;;;12.30;99.90;;;;;;5093145;28;19935;-82
2022/11/15 02:27:43;;;;;;;;;;;12.30;99.90;;;;;;5092845;28;19942;-82
2022/11/15 02:30:34;;;;;;;;;;;12.30;99.90;;;;;;5091976;28;19935;-82
2022/11/15 02:33:24;;;;;;;;;;;12.30;99.90;;;;;;5091807;28;19931;-82
2022/11/15 02:36:13;;;;;;;;;;;12.30;99.90;;;;;;5092009;28;19970;-82
2022/11/15 02:39:01;;;;;;;;;;;12.30;99.90;;;;;;5091120;28;19931;-81
2022/11/15 02:41:48;;;;;;;;;;;12.40;99.90;;;;;;5092385;28;20303;-81
2022/11/15 02:44:36;;;;;;;;;;;12.40;99.90;;;;;;5091644;28;19954;-81
2022/11/15 02:47:25;;;;;;;;;;;12.50;99.90;;;;;;5093086;28;21260;-82
2022/11/15 02:50:13;;;;;;;;;;;12.50;99.90;;;;;;5093447;28;19935;-81
2022/11/15 02:52:58;;;;;;;;;;;12.50;99.90;;;;;;5093658;28;20001;-82
2022/11/15 02:55:46;;;;;;;;;;;12.60;99.90;;;;;;5091635;28;19970;-82
2022/11/15 02:58:54;;;;;;;;;;;12.60;99.90;;;;;;5092481;28;21279;-81
2022/11/15 03:01:44;;;;;;;;;;;12.60;99.90;;;;;;5092449;28;19939;-83
2022/11/15 03:04:35;;;;;;;;;;;12.60;99.90;;;;;;5091705;28;19946;-81
2022/11/15 03:07:25;;;;;;;;;;;12.60;99.90;;;;;;5092091;28;20295;-81
2022/11/15 03:10:13;;;;;;;;;;;12.70;99.90;;;;;;5092663;28;20066;-81
2022/11/15 03:13:00;;;;;;;;;;;12.70;99.90;;;;;;5089429;28;19979;-82
2022/11/15 03:15:50;;;;;;;;;;;12.70;99.90;;;;;;5090986;28;20065;-82
2022/11/15 03:18:38;;;;;;;;;;;12.70;99.90;;;;;;5090984;28;19939;-82
2022/11/15 03:21:26;;;;;;;;;;;12.70;99.90;;;;;;5090832;28;20271;-82
2022/11/15 03:24:13;;;;;;;;;;;12.80;99.90;;;;;;5091334;28;20005;-82
2022/11/15 03:27:00;;;;;;;;;;;12.80;99.90;;;;;;5091177;28;19935;-82
2022/11/15 03:29:47;;;;;;;;;;;12.80;99.90;;;;;;5089744;28;19947;-81
2022/11/15 03:32:36;;;;;;;;;;;12.80;99.90;;;;;;5092664;28;21527;-83
2022/11/15 03:35:22;;;;;;;;;;;12.90;99.90;;;;;;5089844;28;19981;-82
2022/11/15 03:38:15;;;;;;;;;;;12.90;99.90;;;;;;5092415;28;20318;-83
2022/11/15 03:41:04;;;;;;;;;;;12.90;99.90;;;;;;5091486;28;19939;-82
2022/11/15 03:43:53;;;;;;;;;;;12.90;99.90;;;;;;5091213;28;19939;-82
2022/11/15 03:46:41;;;;;;;;;;;13.00;99.90;;;;;;5091550;28;20105;-82
2022/11/15 03:49:28;;;;;;;;;;;13.00;99.90;;;;;;5091234;28;19931;-82
2022/11/15 03:52:18;;;;;;;;;;;13.00;99.90;;;;;;5091425;28;19943;-83
2022/11/15 03:55:05;;;;;;;;;;;13.00;99.90;;;;;;5088321;28;19935;-83
2022/11/15 03:57:54;;;;;;;;;;;13.00;99.90;;;;;;5092002;28;19939;-82
2022/11/15 04:00:40;;;;;;;;;;;13.10;99.90;;;;;;5090472;28;20017;-82
2022/11/15 04:03:26;;;;;;;;;;;13.10;99.90;;;;;;5092696;28;19943;-82
2022/11/15 04:06:11;;;;;;;;;;;13.10;99.90;;;;;;5091033;28;19935;-81
2022/11/15 04:08:57;;;;;;;;;;;13.10;99.90;;;;;;5089586;28;19977;-81
2022/11/15 04:11:44;;;;;;;;;;;13.10;99.90;;;;;;5091562;28;19930;-83
2022/11/15 04:14:29;;;;;;;;;;;13.10;99.90;;;;;;5092571;28;19963;-83
2022/11/15 04:17:15;;;;;;;;;;;13.10;99.90;;;;;;5091048;28;19955;-83
2022/11/15 04:26:09;;;;;;;;;;;13.20;99.90;;;;;;5089741;28;20016;-82
2022/11/15 04:32:00;;;;;;;;;;;13.20;99.90;;;;;;5089787;28;19943;-82
2022/11/15 04:34:45;;;;;;;;;;;13.20;99.90;;;;;;5089748;28;20013;-81
2022/11/15 04:37:31;;;;;;;;;;;13.20;99.90;;;;;;5089905;28;19950;-80
2022/11/15 04:40:16;;;;;;;;;;;13.20;99.90;;;;;;5092451;28;19939;-80
2022/11/15 04:43:02;;;;;;;;;;;13.20;99.90;;;;;;5091997;28;19939;-80
2022/11/15 04:45:49;;;;;;;;;;;13.30;99.90;;;;;;5092421;28;20073;-79
2022/11/15 04:48:34;;;;;;;;;;;13.20;99.90;;;;;;5093418;28;19938;-80
2022/11/15 04:51:20;;;;;;;;;;;13.30;99.90;;;;;;5092335;28;19977;-80
2022/11/15 04:54:05;;;;;;;;;;;13.30;99.90;;;;;;5091549;28;20037;-80
2022/11/15 04:56:50;;;;;;;;;;;13.30;99.90;;;;;;5090349;28;19939;-81
2022/11/15 04:59:36;;;;;;;;;;;13.30;99.90;;;;;;5091319;28;20165;-81
2022/11/15 05:02:22;;;;;;;;;;;13.30;99.90;;;;;;5093320;28;19931;-83
2022/11/15 05:05:07;;;;;;;;;;;13.30;99.90;;;;;;5088442;28;19931;-83
2022/11/15 05:07:52;;;;;;;;;;;13.30;99.90;;;;;;5092702;28;19947;-82
2022/11/15 05:10:39;;;;;;;;;;;13.30;99.90;;;;;;5094415;28;20474;-82
2022/11/15 05:13:25;;;;;;;;;;;13.30;99.90;;;;;;5091008;28;20085;-81
2022/11/15 05:16:10;;;;;;;;;;;13.30;99.90;;;;;;5090502;28;20016;-83
2022/11/15 05:18:57;;;;;;;;;;;13.30;99.90;;;;;;5087940;28;19951;-82
2022/11/15 05:21:43;;;;;;;;;;;13.30;99.90;;;;;;5087499;28;19935;-82
2022/11/15 05:24:28;;;;;;;;;;;13.30;99.90;;;;;;5089434;28;20158;-81
2022/11/15 05:27:13;;;;;;;;;;;13.20;99.90;;;;;;5091576;28;20307;-82
2022/11/15 05:29:59;;;;;;;;;;;13.20;99.90;;;;;;5089221;28;19939;-81
2022/11/15 05:32:45;;;;;;;;;;;13.20;99.90;;;;;;5091616;28;19935;-81
2022/11/15 05:35:34;;;;;;;;;;;13.20;99.90;;;;;;5086132;28;19969;-77
2022/11/15 05:38:20;;;;;;;;;;;13.20;99.90;;;;;;5089469;28;20069;-79
2022/11/15 05:41:07;;;;;;;;;;;13.20;99.90;;;;;;5085240;28;20359;-78
2022/11/15 05:43:54;;;;;;;;;;;13.20;99.90;;;;;;5089386;28;19935;-80
2022/11/15 05:46:40;;;;;;;;;;;12.00;99.90;;;;;;5087837;28;20080;-80
2022/11/15 05:49:28;;;;;;;;;;;13.10;99.90;;;;;;5075126;28;19951;-79
2022/11/15 05:52:17;;;;;;;;;;;13.10;99.90;;;;;;5076631;28;19954;-79
2022/11/15 05:55:02;;;;;;;;;;;13.10;99.90;;;;;;5081795;28;20362;-80
2022/11/15 05:57:48;;;;;;;;;;;13.10;99.90;;;;;;5081216;28;19931;-79
2022/11/15 06:00:34;;;;;;;;;;;13.10;99.90;;;;;;5079635;28;19942;-80
2022/11/15 06:03:20;;;;;;;;;;;13.10;99.90;;;;;;5081896;28;19981;-80
2022/11/15 06:06:06;;;;;;;;;;;13.10;99.90;;;;;;5080828;28;20326;-80
2022/11/15 06:08:53;;;;;;;;;;;13.10;99.90;;;;;;5080588;28;19997;-80
2022/11/15 06:11:38;;;;;;;;;;;13.10;99.90;;;;;;5076690;28;20002;-80
2022/11/15 06:14:24;;;;;;;;;;;13.00;99.90;;;;;;5088261;28;19939;-79
2022/11/15 06:17:10;;;;;;;;;;;13.10;99.90;;;;;;5091172;28;19935;-80
2022/11/15 06:19:56;;;;;;;;;;;13.10;99.90;;;;;;5090693;28;19954;-80
2022/11/15 06:22:42;;;;;;;;;;;13.10;99.90;;;;;;5089362;28;20100;-80
2022/11/15 06:25:30;;;;;;;;;;;13.00;99.90;;;;;;5091696;28;19950;-80
2022/11/15 06:28:15;;;;;;;;;;;13.00;99.90;;;;;;5090901;28;19989;-80
2022/11/15 06:31:03;;;;;;;;;;;13.00;99.90;;;;;;5090200;28;19944;-81
2022/11/15 06:33:49;;;;;;;;;;;13.00;99.90;;;;;;5092285;28;19977;-82
2022/11/15 06:36:35;;;;;;;;;;;13.00;99.90;;;;;;5093622;28;19931;-81
2022/11/15 06:39:20;;;;;;;;;;;13.00;99.90;;;;;;5088755;28;20085;-81
2022/11/15 06:42:08;;;;;;;;;;;13.00;99.90;;;;;;5089001;28;19981;-79
2022/11/15 06:44:54;;;;;;;;;;;13.00;99.90;;;;;;5087304;28;19949;-80
2022/11/15 06:47:45;;;;;;;;;;;13.00;99.90;;;;;;5087831;28;19935;-77
2022/11/15 06:50:31;;;;;;;;;;;13.00;99.90;;;;;;5081882;28;19975;-78
2022/11/15 06:53:16;;;;;;;;;;;13.00;99.90;;;;;;5076361;28;20091;-77
2022/11/15 06:56:02;;;;;;;;;;;13.00;99.90;;;;;;5093631;28;19934;-77
2022/11/15 06:58:49;;;;;;;;;;;13.00;99.90;;;;;;5080362;28;19935;-80
2022/11/15 07:01:34;;;;;;;;;;;13.00;99.90;;;;;;5090418;28;20046;-78
2022/11/15 07:04:20;;;;;;;;;;;13.00;99.90;;;;;;5084292;28;20028;-78
2022/11/15 07:07:05;;;;;;;;;;;13.00;99.90;;;;;;5083185;28;19931;-79
2022/11/15 07:09:51;;;;;;;;;;;13.00;99.90;;;;;;5090926;28;19954;-79
2022/11/15 07:12:36;;;;;;;;;;;13.00;99.90;;;;;;5092867;28;19934;-79
2022/11/15 07:15:24;;;;;;;;;;;13.10;99.90;;;;;;5081272;28;19973;-79
2022/11/15 07:18:09;;;;;;;;;;;13.00;99.90;;;;;;5076092;28;19931;-78
2022/11/15 07:20:55;;;;;;;;;;;13.10;99.90;;;;;;5078559;28;20372;-78
2022/11/15 07:23:41;;;;;;;;;;;13.10;99.90;;;;;;5080311;28;19955;-78
2022/11/15 07:26:26;;;;;;;;;;;13.10;99.90;;;;;;5082079;28;20342;-78
2022/11/15 07:29:12;;;;;;;;;;;13.10;99.90;;;;;;5080284;28;19932;-79
2022/11/15 07:31:58;;;;;;;;;;;13.10;99.90;;;;;;5081600;28;20323;-78
2022/11/15 07:34:45;;;;;;;;;;;13.20;99.90;;;;;;5087171;28;19939;-77
2022/11/15 07:37:31;;;;;;;;;;;13.20;99.90;;;;;;5088132;28;20275;-78
2022/11/15 07:40:16;;;;;;;;;;;13.20;99.90;;;;;;5071152;28;20018;-78
2022/11/15 07:43:02;;;;;;;;;;;13.20;99.90;;;;;;5079315;28;20008;-77
2022/11/15 07:45:48;;;;;;;;;;;13.20;99.90;;;;;;5086354;28;19935;-78
2022/11/15 07:48:34;;;;;;;;;;;13.20;99.90;;;;;;5077170;28;19951;-78
2022/11/15 07:51:20;;;;;;;;;;;13.20;99.90;;;;;;5070264;28;19935;-78
2022/11/15 07:54:06;;;;;;;;;;;13.30;99.90;;;;;;5075591;28;20035;-78
2022/11/15 07:56:51;;;;;;;;;;;13.30;99.90;;;;;;5085035;28;20053;-78
2022/11/15 07:59:39;;;;;;;;;;;13.30;99.90;;;;;;5087332;28;19935;-78
2022/11/15 08:02:25;;;;;;;;;;;13.30;99.90;;;;;;5080775;28;19935;-78
2022/11/15 08:05:11;;;;;;;;;;;13.20;99.90;;;;;;5081998;28;20294;-78
2022/11/15 08:07:57;;;;;;;;;;;13.10;99.90;;;;;;5070983;28;19998;-78
2022/11/15 08:10:43;;;;;;;;;;;13.10;99.90;;;;;;5083186;28;19997;-79
2022/11/15 08:13:28;;;;;;;;;;;13.00;99.90;;;;;;5085409;28;19962;-79
2022/11/15 08:16:14;;;;;;;;;;;13.00;99.90;;;;;;5083280;28;20346;-78
2022/11/15 08:19:00;;;;;;;;;;;13.10;99.90;;;;;;5085079;28;19934;-79
2022/11/15 08:21:46;;;;;;;;;;;13.00;99.90;;;;;;5084372;28;19948;-78
2022/11/15 08:24:32;;;;;;;;;;;13.00;99.90;;;;;;5084483;28;20025;-79
2022/11/15 08:27:20;;;;;;;;;;;13.00;99.90;;;;;;5075404;28;20009;-77
2022/11/15 08:30:07;;;;;;;;;;;13.10;99.90;;;;;;5088376;28;20417;-78
2022/11/15 08:32:53;;;;;;;;;;;13.10;99.90;;;;;;5087003;28;19931;-78
2022/11/15 08:35:38;;;;;;;;;;;13.10;99.90;;;;;;5087646;28;20325;-79
2022/11/15 08:38:25;;;;;;;;;;;13.10;99.90;;;;;;5088045;28;19939;-79
2022/11/15 08:41:12;;;;;;;;;;;13.10;99.90;;;;;;5087414;28;20287;-79
2022/11/15 08:43:58;;;;;;;;;;;13.10;99.90;;;;;;5089462;28;19939;-79
2022/11/15 08:46:46;;;;;;;;;;;13.10;99.90;;;;;;5090675;28;19970;-79
2022/11/15 08:49:31;;;;;;;;;;;13.20;99.90;;;;;;5087471;28;20067;-79
2022/11/15 08:52:17;;;;;;;;;;;13.20;99.90;;;;;;5089118;28;20508;-78
2022/11/15 08:55:04;;;;;;;;;;;13.30;99.90;;;;;;5088468;28;19930;-78
2022/11/15 08:57:50;;;;;;;;;;;12.20;99.90;;;;;;5089531;28;19935;-79
2022/11/15 09:00:35;;;;;;;;;;;13.40;99.90;;;;;;5074343;28;19934;-78
2022/11/15 09:03:21;;;;;;;;;;;13.40;99.90;;;;;;5074203;28;19939;-78
2022/11/15 09:06:07;;;;;;;;;;;13.50;99.90;;;;;;5078361;28;20484;-79
2022/11/15 09:08:52;;;;;;;;;;;13.50;99.90;;;;;;5079520;28;19935;-79
2022/11/15 09:11:38;;;;;;;;;;;13.60;99.90;;;;;;5086088;28;19989;-79
2022/11/15 09:14:24;;;;;;;;;;;13.90;99.90;;;;;;5076066;28;19951;-79
2022/11/15 09:17:10;;;;;;;;;;;14.10;99.90;;;;;;5073734;28;19935;-78
2022/11/15 09:19:56;;;;;;;;;;;14.40;99.90;;;;;;5085569;28;20013;-78
2022/11/15 09:22:41;;;;;;;;;;;14.60;99.90;;;;;;5070583;28;20599;-79
2022/11/15 09:25:26;;;;;;;;;;;14.70;99.90;;;;;;5077031;28;19934;-78
2022/11/15 09:28:13;;;;;;;;;;;14.70;99.90;;;;;;5069600;28;19935;-79
2022/11/15 09:30:59;;;;;;;;;;;14.70;99.90;;;;;;5072519;28;20079;-79
2022/11/15 09:33:45;;;;;;;;;;;14.70;99.90;;;;;;5072536;28;19935;-78
2022/11/15 09:36:30;;;;;;;;;;;14.60;99.90;;;;;;5081109;28;19935;-79
2022/11/15 09:39:16;;;;;;;;;;;14.60;99.90;;;;;;5071085;28;20060;-78
2022/11/15 09:42:21;;;;;;;;;;;14.60;99.90;;;;;;5076699;28;19935;-79
2022/11/15 09:48:09;;;;;;;;;;;14.90;99.90;;;;;;5460099;22;20039;-79
2022/11/15 09:51:03;;;;;;;;;;;14.80;99.90;;;;;;5103339;28;19934;-79
2022/11/15 09:53:32;;;;;;;;;;;14.90;99.90;;;;;;5105237;28;20308;-79
2022/11/15 09:56:00;;;;;;;;;;;14.90;99.90;;;;;;5103424;28;19928;-78
2022/11/15 09:58:34;;;;;;;;;;;14.90;99.90;;;;;;5106272;28;19932;-78
2022/11/15 10:01:05;;;;;;;;;;;14.90;99.90;;;;;;5082138;28;20272;-78
2022/11/15 10:03:35;;;;;;;;;;;14.80;99.90;;;;;;5099053;28;19994;-79
2022/11/15 10:06:03;;;;;;;;;;;14.80;99.90;;;;;;5104073;28;19928;-79
2022/11/15 10:08:51;;;;;;;;;;;14.90;99.90;;;;;;5098895;28;20019;-79
2022/11/15 10:11:21;;;;;;;;;;;15.00;99.90;;;;;;5091534;28;20027;-79
2022/11/15 10:13:49;;;;;;;;;;;15.00;99.90;;;;;;5092944;28;19932;-79
2022/11/15 10:16:24;;;;;;;;;;;15.10;99.90;;;;;;5090532;28;19953;-79
2022/11/15 10:18:57;;;;;;;;;;;15.10;99.90;;;;;;5101841;28;19928;-78
2022/11/15 10:21:26;;;;;;;;;;;15.20;99.90;;;;;;5095590;28;19944;-78
2022/11/15 10:23:54;;;;;;;;;;;15.20;99.90;;;;;;5085152;28;19928;-78
2022/11/15 10:26:22;;;;;;;;;;;15.30;99.90;;;;;;5079591;28;19930;-78
2022/11/15 10:28:48;;;;;;;;;;;15.40;99.90;;;;;;5098487;28;19944;-78
2022/11/15 10:31:24;;;;;;;;;;;15.50;99.90;;;;;;5109386;28;19928;-79
2022/11/15 10:33:52;;;;;;;;;;;15.50;99.90;;;;;;5110576;28;20379;-78
2022/11/15 10:36:22;;;;;;;;;;;15.50;99.90;;;;;;5091355;28;19953;-79
2022/11/15 10:38:58;;;;;;;;;;;15.60;99.90;;;;;;5100001;28;19924;-79
2022/11/15 10:41:38;;;;;;;;;;;15.10;99.90;;;;;;5097144;28;20374;-79
2022/11/15 10:44:11;;;;;;;;;;;15.60;99.90;;;;;;5090601;28;19938;-79
2022/11/15 10:46:40;;;;;;;;;;;15.80;99.90;;;;;;5084985;28;19932;-79
2022/11/15 10:49:14;;;;;;;;;;;15.90;99.90;;;;;;5105233;28;19928;-79
2022/11/15 10:51:43;;;;;;;;;;;16.00;99.90;;;;;;5103318;28;20015;-79
2022/11/15 10:54:13;;;;;;;;;;;16.10;99.90;;;;;;5096318;28;19931;-79
2022/11/15 10:56:40;;;;;;;;;;;16.10;99.90;;;;;;5085733;28;19928;-79
2022/11/15 10:59:14;;;;;;;;;;;16.10;99.90;;;;;;5092435;28;19949;-79
2022/11/15 11:01:47;;;;;;;;;;;16.20;99.90;;;;;;5091043;28;19932;-79
2022/11/15 11:04:15;;;;;;;;;;;16.20;99.90;;;;;;5086193;28;20034;-79
2022/11/15 11:06:49;;;;;;;;;;;16.20;99.90;;;;;;5106542;28;19935;-79
2022/11/15 11:09:24;;;;;;;;;;;16.20;99.90;;;;;;5105526;28;19951;-78
2022/11/15 11:11:52;;;;;;;;;;;16.20;99.90;;;;;;5086116;28;20352;-79
2022/11/15 11:14:22;;;;;;;;;;;16.30;99.90;;;;;;5090261;28;20063;-79
2022/11/15 11:16:51;;;;;;;;;;;16.40;99.90;;;;;;5111025;28;19989;-79
2022/11/15 11:19:39;;;;;;;;;;;16.40;99.90;;;;;;5083458;28;19928;-79
2022/11/15 11:22:12;;;;;;;;;;;16.50;99.90;;;;;;5085383;28;19996;-79
2022/11/15 11:24:44;;;;;;;;;;;16.50;99.90;;;;;;5112463;28;19939;-78
2022/11/15 11:27:19;;;;;;;;;;;16.50;99.90;;;;;;5097626;28;19930;-78
2022/11/15 11:29:52;;;;;;;;;;;16.40;99.90;;;;;;5085552;28;19928;-78
2022/11/15 11:32:33;;;;;;;;;;;16.40;99.90;;;;;;5078328;28;19928;-79
2022/11/15 11:35:04;;;;;;;;;;;16.40;99.90;;;;;;5107479;28;19939;-79
2022/11/15 11:37:33;;;;;;;;;;;16.30;99.90;;;;;;5097392;28;20407;-79
2022/11/15 11:40:08;;;;;;;;;;;16.30;99.90;;;;;;5081861;28;19928;-79
2022/11/15 11:42:41;;;;;;;;;;;16.40;99.90;;;;;;5084775;28;20312;-79
2022/11/15 11:45:15;;;;;;;;;;;16.40;99.90;;;;;;5092507;28;19928;-79
2022/11/15 11:47:47;;;;;;;;;;;16.50;99.90;;;;;;5112161;28;19927;-79
2022/11/15 11:50:16;;;;;;;;;;;16.40;99.90;;;;;;5108081;28;19953;-80
2022/11/15 11:52:47;;;;;;;;;;;16.40;99.90;;;;;;5095634;28;19947;-80
2022/11/15 11:55:14;;;;;;;;;;;;;;;;;;5094574;28;20029;-80
2022/11/15 11:57:45;;;;;;;;;;;16.30;99.90;;;;;;5092012;28;20318;-80
2022/11/15 12:00:18;;;;;;;;;;;16.20;99.90;;;;;;5114388;28;19927;-80
2022/11/15 12:02:48;;;;;;;;;;;16.20;99.90;;;;;;5098776;28;19951;-79
2022/11/15 12:05:21;;;;;;;;;;;16.20;99.90;;;;;;5109305;28;19932;-79
2022/11/15 12:07:50;;;;;;;;;;;16.20;99.90;;;;;;5096665;28;19931;-77
2022/11/15 12:10:21;;;;;;;;;;;16.20;99.90;;;;;;5092646;28;19928;-78
2022/11/15 12:12:52;;;;;;;;;;;16.20;99.90;;;;;;5088113;28;19924;-78
2022/11/15 12:15:21;;;;;;;;;;;16.20;99.90;;;;;;5105550;28;19951;-79
2022/11/15 12:17:50;;;;;;;;;;;16.20;99.90;;;;;;5094206;28;20298;-79
2022/11/15 12:20:20;;;;;;;;;;;16.20;99.90;;;;;;5116339;28;19924;-78
2022/11/15 12:22:53;;;;;;;;;;;16.20;99.90;;;;;;5109069;28;19923;-79
2022/11/15 12:25:22;;;;;;;;;;;16.10;99.90;;;;;;5111885;28;19924;-79
2022/11/15 12:27:51;;;;;;;;;;;16.10;99.90;;;;;;5094655;28;19931;-78
2022/11/15 12:30:20;;;;;;;;;;;16.10;99.90;;;;;;5084247;28;19985;-80
2022/11/15 12:32:54;;;;;;;;;;;16.10;99.90;;;;;;5094320;28;19931;-77
2022/11/15 12:35:24;;;;;;;;;;;16.00;99.90;;;;;;5107061;28;19938;-79
2022/11/15 12:37:51;;;;;;;;;;;16.00;99.90;;;;;;5088230;28;19927;-80
2022/11/15 12:40:24;;;;;;;;;;;16.00;99.90;;;;;;5108129;28;19973;-79
2022/11/15 12:42:59;;;;;;;;;;;16.00;99.90;;;;;;5087583;28;19924;-78
2022/11/15 12:45:28;;;;;;;;;;;16.10;99.90;;;;;;5107659;28;19932;-80
2022/11/15 12:48:12;;;;;;;;;;;16.10;99.90;;;;;;5087491;28;19932;-79
2022/11/15 12:50:54;;;;;;;;;;;16.10;99.90;;;;;;5109550;28;19932;-79
2022/11/15 12:53:27;;;;;;;;;;;16.20;99.90;;;;;;5106796;28;19971;-79
2022/11/15 12:56:10;;;;;;;;;;;16.20;99.90;;;;;;5102002;28;20011;-79
2022/11/15 12:58:42;;;;;;;;;;;16.20;99.90;;;;;;5086017;28;19946;-78
2022/11/15 13:01:09;;;;;;;;;;;16.30;99.90;;;;;;5087259;28;19924;-78
2022/11/15 13:03:57;;;;;;;;;;;16.40;99.90;;;;;;5104389;28;20040;-78
2022/11/15 13:06:40;;;;;;;;;;;16.40;99.90;;;;;;5101085;28;19973;-78
2022/11/15 13:09:22;;;;;;;;;;;17.70;99.90;;;;;;5098025;28;19936;-79
2022/11/15 13:11:52;;;;;;;;;;;16.50;99.90;;;;;;5084277;28;20000;-78
2022/11/15 13:14:39;;;;;;;;;;;16.50;99.90;;;;;;5088416;28;19924;-79
2022/11/15 13:17:22;;;;;;;;;;;16.50;99.90;;;;;;5107867;28;19931;-79
2022/11/15 13:19:54;;;;;;;;;;;16.40;99.90;;;;;;5086648;28;20290;-79
2022/11/15 13:28:01;;;;;;;;;;;15.90;99.90;;;;;;5216182;22;20010;-80
2022/11/15 13:30:29;;;;;;;;;;;15.80;99.90;;;;;;5096796;28;19986;-80
2022/11/15 13:32:57;;;;;;;;;;;15.80;99.90;;;;;;5102245;28;19927;-80
2022/11/15 13:35:27;;;;;;;;;;;15.70;99.90;;;;;;5091438;28;19928;-81
2022/11/15 13:37:55;;;;;;;;;;;15.70;99.90;;;;;;5110687;28;19948;-79
2022/11/15 13:40:24;;;;;;;;;;;15.70;99.90;;;;;;5109231;28;19924;-78
2022/11/15 13:42:51;;;;;;;;;;;15.70;99.90;;;;;;5108929;28;19949;-80
2022/11/15 13:45:18;;;;;;;;;;;15.70;99.90;;;;;;5099468;28;19932;-79
2022/11/15 13:47:45;;;;;;;;;;;15.70;99.90;;;;;;5087460;28;19931;-79
2022/11/15 13:50:12;;;;;;;;;;;15.80;99.90;;;;;;5100663;28;19924;-79
2022/11/15 13:52:42;;;;;;;;;;;15.70;99.90;;;;;;5105978;28;19935;-79
2022/11/15 13:55:13;;;;;;;;;;;15.80;99.90;;;;;;5090198;28;19928;-78
2022/11/15 13:57:42;;;;;;;;;;;15.80;99.90;;;;;;5106564;28;19935;-79
2022/11/15 14:00:25;;;;;;;;;;;15.80;99.90;;;;;;5087548;28;20030;-79
2022/11/15 14:02:52;;;;;;;;;;;15.80;99.90;;;;;;5106066;28;19977;-78
2022/11/15 14:05:20;;;;;;;;;;;15.80;99.90;;;;;;5077489;28;19950;-79
2022/11/15 14:07:55;;;;;;;;;;;15.80;99.90;;;;;;5104240;22;19960;-78
2022/11/15 14:10:26;;;;;;;;;;;15.80;99.90;;;;;;5054848;28;19955;-78
2022/11/15 14:12:53;;;;;;;;;;;15.70;99.90;;;;;;5046124;28;20277;-79
2022/11/15 14:15:27;;;;;;;;;;;15.50;99.90;;;;;;5088029;28;19947;-78
2022/11/15 14:17:53;;;;;;;;;;;15.50;99.90;;;;;;5051091;28;19960;-79
2022/11/15 14:20:31;;;;;;;;;;;15.50;99.90;;;;;;5060313;28;20096;-80
2022/11/15 14:23:00;;;;;;;;;;;15.40;99.90;;;;;;5050707;28;19929;-80
2022/11/15 14:25:28;;;;;;;;;;;15.30;99.90;;;;;;5051718;28;19929;-79
2022/11/15 14:28:13;;;;;;;;;;;15.40;99.90;;;;;;5056762;28;20062;-80
2022/11/15 14:30:40;;;;;;;;;;;15.30;99.90;;;;;;5057312;28;20121;-80
2022/11/15 14:33:19;;;;;;;;;;;15.20;99.90;;;;;;5060345;28;19959;-80
2022/11/15 14:35:46;;;;;;;;;;;15.10;99.90;;;;;;5053526;28;19987;-79
2022/11/15 14:38:14;;;;;;;;;;;15.00;99.90;;;;;;5051164;28;19933;-79
2022/11/15 14:40:41;;;;;;;;;;;15.00;99.90;;;;;;5057223;28;19933;-79
2022/11/15 14:43:10;;;;;;;;;;;14.90;99.90;;;;;;5046605;28;19929;-79
2022/11/15 14:45:37;;;;;;;;;;;14.80;99.90;;;;;;5050387;28;19986;-79
2022/11/15 14:48:04;;;;;;;;;;;14.70;99.90;;;;;;5055154;28;19929;-79
2022/11/15 14:50:31;;;;;;;;;;;14.60;99.90;;;;;;5052855;28;20022;-78
2022/11/15 14:52:58;;;;;;;;;;;14.60;99.90;;;;;;5050898;28;19944;-78
2022/11/15 14:55:28;;;;;;;;;;;14.60;99.90;;;;;;5054388;28;19979;-77
2022/11/15 14:57:55;;;;;;;;;;;14.60;99.90;;;;;;5058154;28;19960;-77
2022/11/15 15:00:22;;;;;;;;;;;14.60;99.90;;;;;;5054160;28;19928;-79
2022/11/15 15:02:49;;;;;;;;;;;14.60;99.90;;;;;;5055520;28;19956;-78
2022/11/15 15:05:17;;;;;;;;;;;14.60;99.90;;;;;;5052436;28;20433;-78
2022/11/15 15:07:44;;;;;;;;;;;14.60;99.90;;;;;;5055443;28;20388;-78
2022/11/15 15:10:12;;;;;;;;;;;14.60;99.90;;;;;;5052057;28;20421;-77
2022/11/15 15:12:40;;;;;;;;;;;14.60;99.90;;;;;;5056147;28;19929;-78
2022/11/15 15:15:13;;;;;;;;;;;14.50;99.90;;;;;;5050431;28;19931;-78
2022/11/15 15:17:40;;;;;;;;;;;14.50;99.90;;;;;;5046549;28;19975;-77
2022/11/15 15:20:07;;;;;;;;;;;14.50;99.90;;;;;;5057481;28;19947;-80
2022/11/15 15:22:34;;;;;;;;;;;14.50;99.90;;;;;;5047399;28;20009;-78
2022/11/15 15:25:02;;;;;;;;;;;14.40;99.90;;;;;;5056921;28;19948;-78
2022/11/15 15:27:29;;;;;;;;;;;14.40;99.90;;;;;;5057064;28;20392;-78
2022/11/15 15:29:57;;;;;;;;;;;14.40;99.90;;;;;;5050493;28;19990;-78
2022/11/15 15:32:24;;;;;;;;;;;14.30;99.90;;;;;;5052661;28;19936;-77
2022/11/15 15:34:51;;;;;;;;;;;14.20;99.90;;;;;;5052816;28;19933;-78
2022/11/15 15:40:47;;;;;;;;;;;14.20;99.90;;;;;;5052766;28;19927;-77
2022/11/15 15:43:14;;;;;;;;;;;14.20;99.90;;;;;;5050374;28;19932;-78
2022/11/15 15:45:44;;;;;;;;;;;14.10;99.90;;;;;;5050887;28;19932;-78
2022/11/15 15:48:12;;;;;;;;;;;14.10;99.90;;;;;;5050017;28;19924;-78
2022/11/15 15:50:39;;;;;;;;;;;14.10;99.90;;;;;;5059411;28;19968;-81
2022/11/15 15:53:07;;;;;;;;;;;14.10;99.90;;;;;;5052874;28;19925;-78
2022/11/15 15:55:36;;;;;;;;;;;14.10;99.90;;;;;;5061238;28;19925;-79